createdAt,value
2017-11-30T00:01:15.666Z,5.04
2017-11-30T00:03:43.055Z,4.94
2017-11-30T00:06:10.468Z,4.94
2017-11-30T00:08:37.891Z,5.01
2017-11-30T00:11:05.349Z,5.05
2017-11-30T00:13:32.747Z,5.04
2017-11-30T00:16:00.132Z,4.83
2017-11-30T00:18:27.524Z,4.92
2017-11-30T00:20:54.909Z,4.97
2017-11-30T00:23:22.329Z,4.95
2017-11-30T00:25:49.721Z,4.89
2017-11-30T00:28:17.117Z,4.87
2017-11-30T00:30:44.502Z,4.80
2017-11-30T00:33:11.900Z,4.66
2017-11-30T00:35:39.283Z,4.66
2017-11-30T00:38:06.679Z,4.78
2017-11-30T00:40:34.101Z,4.70
2017-11-30T00:43:13.140Z,4.76
2017-11-30T00:45:40.528Z,4.54
2017-11-30T00:48:07.932Z,4.57
2017-11-30T00:50:35.324Z,4.72
2017-11-30T00:53:02.751Z,4.66
2017-11-30T00:55:30.140Z,4.71
2017-11-30T00:57:57.535Z,4.64
2017-11-30T01:00:24.955Z,4.56
2017-11-30T01:02:52.308Z,4.64
2017-11-30T01:05:19.696Z,4.07
2017-11-30T01:07:47.080Z,4.15
2017-11-30T01:10:14.472Z,4.33
2017-11-30T01:12:41.893Z,4.55
2017-11-30T01:15:09.345Z,4.50
2017-11-30T01:17:36.816Z,4.60
2017-11-30T01:20:04.204Z,4.38
2017-11-30T01:22:31.616Z,4.29
2017-11-30T01:24:59.018Z,4.09
2017-11-30T01:27:26.427Z,4.13
2017-11-30T01:29:53.880Z,4.04
2017-11-30T01:32:21.279Z,4.19
2017-11-30T01:34:48.677Z,4.13
2017-11-30T01:37:16.156Z,4.30
2017-11-30T01:39:43.547Z,4.15
2017-11-30T01:42:10.944Z,3.88
2017-11-30T01:44:38.415Z,3.83
2017-11-30T01:47:05.812Z,3.85
2017-11-30T01:49:33.195Z,3.97
2017-11-30T01:52:00.595Z,3.92
2017-11-30T01:57:18.560Z,3.93
2017-11-30T01:59:45.953Z,4.14
2017-11-30T02:02:13.380Z,4.09
2017-11-30T02:04:40.777Z,4.00
2017-11-30T02:07:08.169Z,4.10
2017-11-30T02:09:35.569Z,3.92
2017-11-30T02:12:02.967Z,3.98
2017-11-30T02:14:30.361Z,3.79
2017-11-30T02:16:57.780Z,3.61
2017-11-30T02:19:25.172Z,3.65
2017-11-30T02:21:52.574Z,3.78
2017-11-30T02:24:19.965Z,3.93
2017-11-30T02:26:47.368Z,3.85
2017-11-30T02:29:14.752Z,4.26
2017-11-30T02:31:42.156Z,4.20
2017-11-30T02:34:09.540Z,4.14
2017-11-30T02:36:36.941Z,4.12
2017-11-30T02:39:04.363Z,4.30
2017-11-30T02:41:31.832Z,4.16
2017-11-30T02:43:59.219Z,4.00
2017-11-30T02:46:26.632Z,3.99
2017-11-30T02:48:54.039Z,3.85
2017-11-30T02:51:21.437Z,3.84
2017-11-30T02:53:48.840Z,3.56
2017-11-30T02:56:16.261Z,3.54
2017-11-30T02:58:43.658Z,3.35
2017-11-30T03:01:11.086Z,3.33
2017-11-30T03:03:38.493Z,3.30
2017-11-30T03:06:05.889Z,3.12
2017-11-30T03:08:33.296Z,3.34
2017-11-30T03:11:00.794Z,3.04
2017-11-30T03:13:28.193Z,2.98
2017-11-30T03:15:55.592Z,3.19
2017-11-30T03:18:23.057Z,3.33
2017-11-30T03:20:50.439Z,3.41
2017-11-30T03:25:45.053Z,3.03
2017-11-30T03:28:12.451Z,3.21
2017-11-30T03:30:39.939Z,3.26
2017-11-30T03:33:07.336Z,3.25
2017-11-30T03:35:34.748Z,3.35
2017-11-30T03:38:02.199Z,3.39
2017-11-30T03:40:29.580Z,3.40
2017-11-30T03:42:56.987Z,3.36
2017-11-30T03:45:24.467Z,3.53
2017-11-30T03:47:51.870Z,3.54
2017-11-30T03:50:19.268Z,3.52
2017-11-30T03:52:46.719Z,3.52
2017-11-30T03:55:14.124Z,3.63
2017-11-30T03:57:41.508Z,3.57
2017-11-30T04:00:08.907Z,3.67
2017-11-30T04:02:36.291Z,3.71
2017-11-30T04:05:03.695Z,3.50
2017-11-30T04:07:31.156Z,3.70
2017-11-30T04:09:58.558Z,3.44
2017-11-30T04:12:25.971Z,3.43
2017-11-30T04:14:53.371Z,3.33
2017-11-30T04:17:20.775Z,3.51
2017-11-30T04:19:48.170Z,3.71
2017-11-30T04:22:15.555Z,3.55
2017-11-30T04:24:42.958Z,3.49
2017-11-30T04:29:48.804Z,3.69
2017-11-30T04:32:16.202Z,3.39
2017-11-30T04:34:43.600Z,3.57
2017-11-30T04:37:11.097Z,3.35
2017-11-30T04:39:38.554Z,3.37
2017-11-30T04:42:05.931Z,3.62
2017-11-30T04:44:33.328Z,3.68
2017-11-30T04:47:00.808Z,3.64
2017-11-30T04:49:28.207Z,3.74
2017-11-30T04:51:55.599Z,3.84
2017-11-30T04:54:22.999Z,4.00
2017-11-30T04:56:50.424Z,3.85
2017-11-30T04:59:17.815Z,3.61
2017-11-30T05:01:45.221Z,3.69
2017-11-30T05:04:12.687Z,3.66
2017-11-30T05:06:40.151Z,3.45
2017-11-30T05:09:07.540Z,3.54
2017-11-30T05:11:34.943Z,3.43
2017-11-30T05:14:02.340Z,3.45
2017-11-30T05:16:29.739Z,3.42
2017-11-30T05:18:57.232Z,3.70
2017-11-30T05:21:24.632Z,3.58
2017-11-30T05:23:52.028Z,3.56
2017-11-30T05:26:19.489Z,3.62
2017-11-30T05:28:46.891Z,3.67
2017-11-30T05:31:14.268Z,3.87
2017-11-30T05:33:41.656Z,3.78
2017-11-30T05:36:09.115Z,3.83
2017-11-30T05:38:36.509Z,3.80
2017-11-30T05:41:03.916Z,3.74
2017-11-30T05:43:31.391Z,3.73
2017-11-30T05:45:58.792Z,3.59
2017-11-30T05:48:26.185Z,3.57
2017-11-30T05:50:53.575Z,3.65
2017-11-30T05:53:21.025Z,3.68
2017-11-30T05:55:48.424Z,3.75
2017-11-30T05:58:15.819Z,3.75
2017-11-30T06:00:43.209Z,3.96
2017-11-30T06:03:10.599Z,3.83
2017-11-30T06:05:37.986Z,4.00
2017-11-30T06:08:05.392Z,4.13
2017-11-30T06:10:32.781Z,4.12
2017-11-30T06:13:00.167Z,3.99
2017-11-30T06:15:27.573Z,4.07
2017-11-30T06:17:54.970Z,4.07
2017-11-30T06:20:22.356Z,3.97
2017-11-30T06:22:49.774Z,4.13
2017-11-30T06:25:17.157Z,4.21
2017-11-30T06:27:44.555Z,4.25
2017-11-30T06:30:11.953Z,4.13
2017-11-30T06:32:39.348Z,4.18
2017-11-30T06:35:06.743Z,4.17
2017-11-30T06:37:34.213Z,4.01
2017-11-30T06:40:01.609Z,4.05
2017-11-30T06:42:29.024Z,4.14
2017-11-30T06:44:56.411Z,4.04
2017-11-30T06:47:23.811Z,4.05
2017-11-30T06:49:51.288Z,3.89
2017-11-30T06:52:18.744Z,4.04
2017-11-30T06:54:46.140Z,3.96
2017-11-30T06:57:13.523Z,3.79
2017-11-30T06:59:40.928Z,3.94
2017-11-30T07:02:08.371Z,3.95
2017-11-30T07:04:35.767Z,3.95
2017-11-30T07:07:03.172Z,4.12
2017-11-30T07:09:30.576Z,4.20
2017-11-30T07:11:57.991Z,4.11
2017-11-30T07:14:25.383Z,4.00
2017-11-30T07:16:52.800Z,3.94
2017-11-30T07:19:20.201Z,3.81
2017-11-30T07:21:47.592Z,3.79
2017-11-30T07:24:15.069Z,3.52
2017-11-30T07:26:42.443Z,3.75
2017-11-30T07:29:09.839Z,3.65
2017-11-30T07:31:37.332Z,3.32
2017-11-30T07:34:04.793Z,3.48
2017-11-30T07:36:32.183Z,3.46
2017-11-30T07:38:59.583Z,3.63
2017-11-30T07:41:26.968Z,3.52
2017-11-30T07:43:54.380Z,3.64
2017-11-30T07:46:21.786Z,3.57
2017-11-30T07:48:49.224Z,3.49
2017-11-30T07:51:16.624Z,3.52
2017-11-30T07:53:44.017Z,3.66
2017-11-30T07:56:11.484Z,3.63
2017-11-30T07:58:38.877Z,3.78
2017-11-30T08:01:06.294Z,3.74
2017-11-30T08:03:33.761Z,3.82
2017-11-30T08:06:01.156Z,3.78
2017-11-30T08:08:28.548Z,3.66
2017-11-30T08:10:55.944Z,3.82
2017-11-30T08:13:23.375Z,3.64
2017-11-30T08:15:50.777Z,3.63
2017-11-30T08:18:18.175Z,3.71
2017-11-30T08:20:45.584Z,3.75
2017-11-30T08:23:13.004Z,3.69
2017-11-30T08:25:40.402Z,3.67
2017-11-30T08:28:07.800Z,3.69
2017-11-30T08:30:35.279Z,3.75
2017-11-30T08:33:02.667Z,3.73
2017-11-30T08:35:30.064Z,3.63
2017-11-30T08:37:57.455Z,3.74
2017-11-30T08:40:24.871Z,3.89
2017-11-30T08:42:52.248Z,4.01
2017-11-30T08:45:19.635Z,4.04
2017-11-30T08:47:47.032Z,4.01
2017-11-30T08:50:14.415Z,4.27
2017-11-30T08:52:41.807Z,4.20
2017-11-30T08:55:09.213Z,4.05
2017-11-30T08:57:36.610Z,3.89
2017-11-30T09:00:04.028Z,3.74
2017-11-30T09:02:31.443Z,3.76
2017-11-30T09:04:58.919Z,4.01
2017-11-30T09:07:26.312Z,4.08
2017-11-30T09:09:53.721Z,4.02
2017-11-30T09:12:21.170Z,4.07
2017-11-30T09:14:48.562Z,4.10
2017-11-30T09:17:15.964Z,3.92
2017-11-30T09:19:43.352Z,4.05
2017-11-30T09:22:10.753Z,4.00
2017-11-30T09:24:38.142Z,4.21
2017-11-30T09:27:05.545Z,4.32
2017-11-30T09:29:32.989Z,4.27
2017-11-30T09:32:00.389Z,4.39
2017-11-30T09:34:27.779Z,4.40
2017-11-30T09:36:55.171Z,4.28
2017-11-30T09:39:22.557Z,4.31
2017-11-30T09:41:49.964Z,4.28
2017-11-30T09:44:17.351Z,4.21
2017-11-30T09:46:44.748Z,4.24
2017-11-30T09:49:12.155Z,4.24
2017-11-30T09:51:39.548Z,3.97
2017-11-30T09:54:06.950Z,3.87
2017-11-30T09:56:34.335Z,4.11
2017-11-30T09:59:01.740Z,4.30
2017-11-30T10:01:29.130Z,4.25
2017-11-30T10:03:56.524Z,4.29
2017-11-30T10:06:23.928Z,4.16
2017-11-30T10:08:51.333Z,4.14
2017-11-30T10:11:18.733Z,4.30
2017-11-30T10:13:46.151Z,4.44
2017-11-30T10:16:13.542Z,4.51
2017-11-30T10:18:40.941Z,4.42
2017-11-30T10:21:08.328Z,4.46
2017-11-30T10:23:35.787Z,4.47
2017-11-30T10:26:03.180Z,4.68
2017-11-30T10:28:30.580Z,4.86
2017-11-30T10:30:58.058Z,4.79
2017-11-30T10:33:25.504Z,4.62
2017-11-30T10:35:52.910Z,4.70
2017-11-30T10:38:20.321Z,4.74
2017-11-30T10:40:47.707Z,4.51
2017-11-30T10:43:15.128Z,4.63
2017-11-30T10:45:42.524Z,4.52
2017-11-30T10:48:09.919Z,4.57
2017-11-30T10:50:37.312Z,4.51
2017-11-30T10:53:04.703Z,4.58
2017-11-30T10:55:32.199Z,4.30
2017-11-30T10:57:59.599Z,4.41
2017-11-30T11:00:26.995Z,4.59
2017-11-30T11:02:54.383Z,4.62
2017-11-30T11:05:21.797Z,4.68
2017-11-30T11:07:49.180Z,4.75
2017-11-30T11:10:16.588Z,4.69
2017-11-30T11:12:43.989Z,4.63
2017-11-30T11:15:11.388Z,4.72
2017-11-30T11:17:38.780Z,4.50
2017-11-30T11:20:06.176Z,4.52
2017-11-30T11:22:33.564Z,4.56
2017-11-30T11:25:00.956Z,4.55
2017-11-30T11:27:28.352Z,4.55
2017-11-30T11:29:55.747Z,4.62
2017-11-30T11:32:23.148Z,4.74
2017-11-30T11:34:50.550Z,4.75
2017-11-30T11:37:17.943Z,4.86
2017-11-30T11:39:45.329Z,4.85
2017-11-30T11:42:12.748Z,4.98
2017-11-30T11:44:40.157Z,5.19
2017-11-30T11:47:07.558Z,5.32
2017-11-30T11:49:35.016Z,5.26
2017-11-30T11:52:02.472Z,5.38
2017-11-30T11:54:29.858Z,5.21
2017-11-30T11:56:57.280Z,5.10
2017-11-30T11:59:24.688Z,5.20
2017-11-30T12:01:52.103Z,5.38
2017-11-30T12:04:19.462Z,5.35
2017-11-30T12:06:46.868Z,5.33
2017-11-30T12:09:14.251Z,5.08
2017-11-30T12:11:41.652Z,5.23
2017-11-30T12:14:09.059Z,5.35
2017-11-30T12:16:36.460Z,5.08
2017-11-30T12:19:03.856Z,4.99
2017-11-30T12:21:31.323Z,4.69
2017-11-30T12:23:58.736Z,4.93
2017-11-30T12:26:26.366Z,5.09
2017-11-30T12:28:53.744Z,4.98
2017-11-30T12:31:21.140Z,4.99
2017-11-30T12:33:48.532Z,5.20
2017-11-30T12:36:15.941Z,5.19
2017-11-30T12:38:43.340Z,5.07
2017-11-30T12:41:10.741Z,5.06
2017-11-30T12:43:38.232Z,5.14
2017-11-30T12:46:05.616Z,5.27
2017-11-30T12:48:32.998Z,5.07
2017-11-30T12:51:00.404Z,5.20
2017-11-30T12:53:27.792Z,5.16
2017-11-30T12:55:55.212Z,5.30
2017-11-30T12:58:22.594Z,4.72
2017-11-30T13:00:50.042Z,4.79
2017-11-30T13:03:17.410Z,5.03
2017-11-30T13:05:44.798Z,4.86
2017-11-30T13:08:12.203Z,4.95
2017-11-30T13:10:39.647Z,4.98
2017-11-30T13:13:07.001Z,4.89
2017-11-30T13:15:34.474Z,5.10
2017-11-30T13:18:01.866Z,4.95
2017-11-30T13:20:29.258Z,4.89
2017-11-30T13:22:56.645Z,4.99
2017-11-30T13:25:24.033Z,4.94
2017-11-30T13:27:51.422Z,5.03
2017-11-30T13:30:18.866Z,5.06
2017-11-30T13:32:46.258Z,5.07
2017-11-30T13:35:13.639Z,5.25
2017-11-30T13:37:41.065Z,5.25
2017-11-30T13:40:08.495Z,5.23
2017-11-30T13:42:35.911Z,4.99
2017-11-30T13:45:03.342Z,5.08
2017-11-30T13:47:30.813Z,5.12
2017-11-30T13:49:58.210Z,5.21
2017-11-30T13:52:25.626Z,5.25
2017-11-30T13:54:53.008Z,5.33
2017-11-30T13:57:20.504Z,5.29
2017-11-30T13:59:47.946Z,5.37
2017-11-30T14:02:15.372Z,5.31
2017-11-30T14:04:42.790Z,5.20
2017-11-30T14:07:10.174Z,5.26
2017-11-30T14:09:37.562Z,5.08
2017-11-30T14:12:04.959Z,5.09
2017-11-30T14:14:32.443Z,5.13
2017-11-30T14:16:59.913Z,5.18
2017-11-30T14:19:27.299Z,5.25
2017-11-30T14:21:54.694Z,5.19
2017-11-30T14:24:22.182Z,5.28
2017-11-30T14:26:49.569Z,5.28
2017-11-30T14:29:16.995Z,5.37
2017-11-30T14:31:44.464Z,5.33
2017-11-30T14:34:11.899Z,5.43
2017-11-30T14:36:39.294Z,5.33
2017-11-30T14:39:06.689Z,5.35
2017-11-30T14:41:34.074Z,5.45
2017-11-30T14:44:01.526Z,5.54
2017-11-30T14:46:28.920Z,5.49
2017-11-30T14:48:56.329Z,5.34
2017-11-30T14:51:23.794Z,5.16
2017-11-30T14:53:51.190Z,5.03
2017-11-30T14:56:18.574Z,4.49
2017-11-30T14:58:45.966Z,4.36
2017-11-30T15:01:13.414Z,4.41
2017-11-30T15:03:40.811Z,4.48
2017-11-30T15:06:08.206Z,4.45
2017-11-30T15:08:35.625Z,4.28
2017-11-30T15:11:03.043Z,4.07
2017-11-30T15:13:30.430Z,4.09
2017-11-30T15:15:57.817Z,4.07
2017-11-30T15:18:25.294Z,4.11
2017-11-30T15:20:52.699Z,4.08
2017-11-30T15:23:20.078Z,4.13
2017-11-30T15:25:47.469Z,4.24
2017-11-30T15:28:14.914Z,4.41
2017-11-30T15:30:42.378Z,4.38
2017-11-30T15:33:09.828Z,4.55
2017-11-30T15:35:37.298Z,4.47
2017-11-30T15:38:04.696Z,4.48
2017-11-30T15:40:32.089Z,4.36
2017-11-30T15:42:59.475Z,4.46
2017-11-30T15:45:26.876Z,4.52
2017-11-30T15:47:54.254Z,4.42
2017-11-30T15:50:21.648Z,4.62
2017-11-30T15:52:49.074Z,4.64
2017-11-30T15:55:16.530Z,4.57
2017-11-30T15:57:43.987Z,4.80
2017-11-30T16:00:11.383Z,4.86
2017-11-30T16:02:38.797Z,4.99
2017-11-30T16:05:06.186Z,5.08
2017-11-30T16:07:33.575Z,5.21
2017-11-30T16:10:01.063Z,5.26
2017-11-30T16:12:28.451Z,5.42
2017-11-30T16:14:55.871Z,5.35
2017-11-30T16:17:23.323Z,5.37
2017-11-30T16:19:50.722Z,5.30
2017-11-30T16:22:18.110Z,5.40
2017-11-30T16:24:45.508Z,5.45
2017-11-30T16:27:12.973Z,5.39
2017-11-30T16:29:40.398Z,5.43
2017-11-30T16:32:07.798Z,5.35
2017-11-30T16:34:35.182Z,5.09
2017-11-30T16:37:02.585Z,4.92
2017-11-30T16:39:30.094Z,5.02
2017-11-30T16:41:57.494Z,5.15
2017-11-30T16:44:24.890Z,5.23
2017-11-30T16:46:52.414Z,5.12
2017-11-30T16:49:19.798Z,4.91
2017-11-30T16:51:47.197Z,5.10
2017-11-30T16:54:14.599Z,5.18
2017-11-30T16:56:42.001Z,5.14
2017-11-30T16:59:09.470Z,5.16
2017-11-30T17:01:36.942Z,5.29
2017-11-30T17:04:04.384Z,5.40
2017-11-30T17:06:31.786Z,5.37
2017-11-30T17:08:59.176Z,5.50
2017-11-30T17:11:26.607Z,5.50
2017-11-30T17:13:54.103Z,5.61
2017-11-30T17:16:21.553Z,5.56
2017-11-30T17:18:48.948Z,5.35
2017-11-30T17:21:16.330Z,5.25
2017-11-30T17:23:43.724Z,5.17
2017-11-30T17:26:11.182Z,5.10
2017-11-30T17:28:38.645Z,5.21
2017-11-30T17:31:06.091Z,5.30
2017-11-30T17:33:33.478Z,5.35
2017-11-30T17:36:00.870Z,5.43
2017-11-30T17:38:28.254Z,5.59
2017-11-30T17:40:55.639Z,5.53
2017-11-30T17:43:23.063Z,5.64
2017-11-30T17:45:50.453Z,5.57
2017-11-30T17:48:17.878Z,5.64
2017-11-30T17:50:45.330Z,5.72
2017-11-30T17:53:12.718Z,5.28
2017-11-30T17:55:40.126Z,5.36
2017-11-30T17:58:07.606Z,5.45
2017-11-30T18:00:34.999Z,5.36
2017-11-30T18:03:02.414Z,5.25
2017-11-30T18:05:29.862Z,5.25
2017-11-30T18:07:57.335Z,5.43
2017-11-30T18:10:24.718Z,5.34
2017-11-30T18:12:52.115Z,5.48
2017-11-30T18:15:19.496Z,5.53
2017-11-30T18:17:46.915Z,5.62
2017-11-30T18:20:14.290Z,5.63
2017-11-30T18:25:31.984Z,5.29
2017-11-30T18:27:59.482Z,5.16
2017-11-30T18:30:26.842Z,5.22
2017-11-30T18:32:54.231Z,5.07
2017-11-30T18:35:21.626Z,5.20
2017-11-30T18:37:49.022Z,5.26
2017-11-30T18:40:16.446Z,5.29
2017-11-30T18:42:43.890Z,5.32
2017-11-30T18:45:11.286Z,5.32
2017-11-30T18:47:38.690Z,5.37
2017-11-30T18:50:06.077Z,5.23
2017-11-30T18:52:33.471Z,5.28
2017-11-30T18:55:00.860Z,5.23
2017-11-30T18:57:28.242Z,5.29
2017-11-30T18:59:55.630Z,5.32
2017-11-30T19:02:23.017Z,5.36
2017-11-30T19:04:50.414Z,5.41
2017-11-30T19:07:17.802Z,5.42
2017-11-30T19:09:45.202Z,5.43
2017-11-30T19:12:12.586Z,5.33
2017-11-30T19:14:39.984Z,5.21
2017-11-30T19:17:07.367Z,5.15
2017-11-30T19:19:34.821Z,5.19
2017-11-30T19:22:02.206Z,5.16
2017-11-30T19:24:29.598Z,5.06
2017-11-30T19:26:57.083Z,5.15
2017-11-30T19:29:24.473Z,5.12
2017-11-30T19:31:51.866Z,4.95
2017-11-30T19:34:19.255Z,4.99
2017-11-30T19:36:46.727Z,4.99
2017-11-30T19:39:14.111Z,4.97
2017-11-30T19:41:41.532Z,5.07
2017-11-30T19:44:08.917Z,4.80
2017-11-30T19:46:36.306Z,4.86
2017-11-30T19:49:03.800Z,4.80
2017-11-30T19:51:31.269Z,4.76
2017-11-30T19:53:58.706Z,4.70
2017-11-30T19:56:26.166Z,4.78
2017-11-30T19:58:53.626Z,4.72
2017-11-30T20:01:21.019Z,4.77
2017-11-30T20:03:48.437Z,4.97
2017-11-30T20:06:15.886Z,5.09
2017-11-30T20:08:43.346Z,5.18
2017-11-30T20:11:10.746Z,5.19
2017-11-30T20:13:38.124Z,5.21
2017-11-30T20:16:05.644Z,5.07
2017-11-30T20:18:33.014Z,5.09
2017-11-30T20:21:00.426Z,5.15
2017-11-30T20:23:27.823Z,5.03
2017-11-30T20:25:55.233Z,4.72
2017-11-30T20:28:22.627Z,4.68
2017-11-30T20:30:50.046Z,4.78
2017-11-30T20:33:17.441Z,4.85
2017-11-30T20:35:44.855Z,4.91
2017-11-30T20:38:12.282Z,5.00
2017-11-30T20:40:39.692Z,4.87
2017-11-30T20:43:07.094Z,4.71
2017-11-30T20:45:34.593Z,4.78
2017-11-30T20:48:02.074Z,4.81
2017-11-30T20:50:29.495Z,4.63
2017-11-30T20:52:56.942Z,4.75
2017-11-30T20:55:24.331Z,4.74
2017-11-30T20:57:51.732Z,4.67
2017-11-30T21:00:19.135Z,4.72
2017-11-30T21:02:46.571Z,4.75
2017-11-30T21:05:13.960Z,4.81
2017-11-30T21:07:41.398Z,4.98
2017-11-30T21:10:08.782Z,5.05
2017-11-30T21:12:36.188Z,5.14
2017-11-30T21:15:03.570Z,5.28
2017-11-30T21:17:31.002Z,5.19
2017-11-30T21:19:58.398Z,5.12
2017-11-30T21:22:25.819Z,5.29
2017-11-30T21:24:53.287Z,5.28
2017-11-30T21:27:20.758Z,5.25
2017-11-30T21:29:48.158Z,5.11
2017-11-30T21:32:15.554Z,5.05
2017-11-30T21:34:42.961Z,4.97
2017-11-30T21:37:10.358Z,4.83
2017-11-30T21:39:37.738Z,4.71
2017-11-30T21:42:05.146Z,4.80
2017-11-30T21:44:32.540Z,4.94
2017-11-30T21:46:59.922Z,4.80
2017-11-30T21:49:27.313Z,4.81
2017-11-30T21:51:54.703Z,4.84
2017-11-30T21:54:22.118Z,4.97
2017-11-30T21:56:49.514Z,5.03
2017-11-30T21:59:16.910Z,4.92
2017-11-30T22:01:44.309Z,4.98
2017-11-30T22:04:11.746Z,4.85
2017-11-30T22:06:39.174Z,4.83
2017-11-30T22:09:06.576Z,4.90
2017-11-30T22:11:33.964Z,4.83
2017-11-30T22:14:01.373Z,4.79
2017-11-30T22:16:28.760Z,4.84
2017-11-30T22:18:56.178Z,4.83
2017-11-30T22:21:23.568Z,4.95
2017-11-30T22:23:50.969Z,4.90
2017-11-30T22:26:18.445Z,5.00
2017-11-30T22:28:45.923Z,5.00
2017-11-30T22:31:13.374Z,4.99
2017-11-30T22:33:40.754Z,5.15
2017-11-30T22:36:08.166Z,5.23
2017-11-30T22:38:35.618Z,5.22
2017-11-30T22:41:03.080Z,5.42
2017-11-30T22:43:30.531Z,5.55
2017-11-30T22:45:57.990Z,5.60
2017-11-30T22:48:25.386Z,5.63
2017-11-30T22:50:52.783Z,5.58
2017-11-30T22:53:20.237Z,5.65
2017-11-30T22:55:47.617Z,5.73
2017-11-30T22:58:15.066Z,5.73
2017-11-30T23:00:42.463Z,5.66
2017-11-30T23:03:09.858Z,5.56
2017-11-30T23:05:37.266Z,5.50
2017-11-30T23:08:04.666Z,5.40
2017-11-30T23:10:32.126Z,5.31
2017-11-30T23:12:59.466Z,5.32
2017-11-30T23:15:26.862Z,5.27
2017-11-30T23:17:54.358Z,5.32
2017-11-30T23:20:21.758Z,5.25
2017-11-30T23:22:49.151Z,5.29
2017-11-30T23:25:16.627Z,5.46
2017-11-30T23:27:44.078Z,5.46
2017-11-30T23:30:11.478Z,5.51
2017-11-30T23:32:38.877Z,5.52
2017-11-30T23:35:06.266Z,5.49
2017-11-30T23:37:33.653Z,5.46
2017-11-30T23:40:01.069Z,5.48
2017-11-30T23:42:28.450Z,5.49
2017-11-30T23:44:55.848Z,5.40
2017-11-30T23:47:23.234Z,5.36
2017-11-30T23:49:50.690Z,5.46
2017-11-30T23:52:18.142Z,5.51
2017-11-30T23:54:45.534Z,5.63
2017-11-30T23:57:12.959Z,5.56
2017-11-30T23:59:40.361Z,5.66
